Airport Name : Udaipur

Other Name : Udaipur

ICAO : VAUD

IATA : UDR

FAA :

Latitude : 24.617697

Longitude : 73.8961

Country : India

Local Date and Time : 15 Jul 2024 23:51

 

TAF (Terminal Aerodrome Forecast)

TAF VAUD 150800Z 1509/1518 02008KT 4000 BR BKN030 BKN100 TEMPO 1509/1512 01010KT 2000 TSRA RA SCT300 FEW035CB BKN090 BECMG 1514/1516 VRB03KT 3000 -RA DZ BR BKN025 OVC090

 

METAR (METeorological Aerodrome Report)

VAUD 151530Z 26004KT 4000 BR SCT025 BKN080 28/26 Q1002 NOSIG

VAUD 151500Z 24005KT 4000 BR SCT025 BKN080 29/26 Q1002 NOSIG

VAUD 151430Z 26002KT 4000 BR SCT025 BKN080 29/26 Q1002 NOSIG